createdAt,value
2018-04-23T00:00:31.163Z,6.50
2018-04-23T00:01:10.191Z,6.30
2018-04-23T00:02:10.223Z,6.70
2018-04-23T00:03:10.155Z,6.60
2018-04-23T00:04:10.180Z,6.90
2018-04-23T00:05:10.177Z,6.90
2018-04-23T00:06:31.329Z,6.80
2018-04-23T00:07:10.205Z,6.20
2018-04-23T00:08:10.147Z,6.70
2018-04-23T00:09:10.203Z,6.80
2018-04-23T00:10:10.126Z,6.10
2018-04-23T00:11:10.290Z,6.30
2018-04-23T00:12:31.134Z,7.00
2018-04-23T00:13:10.116Z,6.50
2018-04-23T00:14:10.335Z,6.80
2018-04-23T00:15:10.150Z,7.20
2018-04-23T00:16:10.417Z,7.00
2018-04-23T00:17:10.230Z,7.20
2018-04-23T00:18:31.117Z,7.40
2018-04-23T00:19:10.117Z,6.90
2018-04-23T00:20:10.099Z,7.50
2018-04-23T00:21:10.108Z,7.80
2018-04-23T00:22:10.228Z,7.90
2018-04-23T00:23:10.241Z,7.40
2018-04-23T00:24:31.196Z,7.50
2018-04-23T00:25:10.231Z,7.50
2018-04-23T00:26:10.252Z,7.60
2018-04-23T00:27:10.183Z,7.80
2018-04-23T00:28:10.174Z,7.50
2018-04-23T00:29:10.107Z,7.60
2018-04-23T00:30:31.088Z,7.80
2018-04-23T00:31:10.075Z,7.30
2018-04-23T00:32:10.223Z,7.40
2018-04-23T00:33:10.049Z,7.20
2018-04-23T00:34:10.101Z,6.80
2018-04-23T00:35:10.063Z,7.40
2018-04-23T00:36:31.102Z,7.20
2018-04-23T00:37:10.050Z,7.90
2018-04-23T00:38:10.238Z,7.30
2018-04-23T00:39:10.285Z,7.50
2018-04-23T00:40:10.246Z,7.20
2018-04-23T00:41:10.058Z,7.20
2018-04-23T00:42:31.040Z,7.10
2018-04-23T00:43:10.037Z,7.20
2018-04-23T00:44:10.041Z,7.50
2018-04-23T00:45:10.038Z,7.30
2018-04-23T00:46:10.062Z,7.60
2018-04-23T00:47:10.924Z,7.60
2018-04-23T00:48:31.020Z,7.10
2018-04-23T00:49:10.130Z,7.30
2018-04-23T00:50:10.038Z,7.20
2018-04-23T00:51:09.991Z,7.10
2018-04-23T00:52:10.248Z,7.20
2018-04-23T00:53:10.032Z,7.20
2018-04-23T00:54:30.996Z,7.00
2018-04-23T00:55:09.994Z,7.50
2018-04-23T00:56:10.114Z,7.50
2018-04-23T00:57:10.086Z,7.40
2018-04-23T00:58:10.187Z,7.30
2018-04-23T00:59:10.206Z,8.20
2018-04-23T01:00:31.112Z,7.80
2018-04-23T01:01:10.189Z,7.70
2018-04-23T01:02:10.196Z,7.80
2018-04-23T01:03:09.980Z,7.70
2018-04-23T01:04:10.027Z,7.90
2018-04-23T01:05:09.974Z,8.00
2018-04-23T01:06:31.003Z,7.50
2018-04-23T01:07:09.986Z,7.90
2018-04-23T01:08:09.990Z,7.00
2018-04-23T01:09:10.062Z,7.30
2018-04-23T01:10:09.944Z,7.20
2018-04-23T01:11:09.953Z,7.50
2018-04-23T01:12:30.957Z,7.30
2018-04-23T01:13:09.989Z,7.30
2018-04-23T01:14:10.059Z,7.50
2018-04-23T01:15:09.953Z,7.20
2018-04-23T01:16:10.106Z,7.80
2018-04-23T01:17:10.091Z,7.60
2018-04-23T01:18:30.975Z,7.50
2018-04-23T01:19:10.119Z,7.80
2018-04-23T01:20:09.931Z,7.60
2018-04-23T01:21:09.905Z,7.10
2018-04-23T01:22:09.936Z,7.90
2018-04-23T01:23:09.937Z,7.40
2018-04-23T01:24:30.927Z,8.00
2018-04-23T01:25:09.924Z,7.50
2018-04-23T01:26:09.932Z,7.40
2018-04-23T01:27:09.905Z,7.00
2018-04-23T01:28:09.883Z,7.80
2018-04-23T01:29:10.064Z,7.30
2018-04-23T02:02:07.853Z,5.50
2018-04-23T02:03:07.828Z,7.80
2018-04-23T02:05:00.855Z,7.90
2018-04-23T02:06:00.776Z,8.50
2018-04-23T02:07:53.751Z,7.90
2018-04-23T02:08:53.728Z,8.00
2018-04-23T02:10:46.707Z,7.60
2018-04-23T02:11:46.674Z,7.60
2018-04-23T02:13:39.627Z,7.60
2018-04-23T02:14:39.604Z,7.60
2018-04-23T02:16:32.623Z,7.30
2018-04-23T02:17:32.578Z,7.40
2018-04-23T02:19:26.500Z,6.50
2018-04-23T02:20:26.482Z,6.80
2018-04-23T02:22:19.428Z,6.20
2018-04-23T02:23:19.398Z,6.40
2018-04-23T02:25:12.414Z,7.00
2018-04-23T02:26:12.390Z,6.20
2018-04-23T02:28:05.328Z,6.20
2018-04-23T02:29:05.313Z,6.40
2018-04-23T02:30:58.330Z,6.00
2018-04-23T02:31:58.312Z,6.20
2018-04-23T02:33:51.253Z,6.20
2018-04-23T02:34:51.241Z,5.90
2018-04-23T02:36:44.228Z,5.80
2018-04-23T02:37:44.205Z,6.00
2018-04-23T02:39:37.264Z,6.10
2018-04-23T02:40:37.247Z,5.80
2018-04-23T02:42:30.133Z,5.70
2018-04-23T02:43:30.117Z,6.00
2018-04-23T02:45:23.070Z,6.30
2018-04-23T02:46:23.042Z,5.80
2018-04-23T02:48:16.064Z,5.90
2018-04-23T02:49:16.041Z,6.10
2018-04-23T02:52:00.093Z,6.00
2018-04-23T02:53:00.079Z,6.40
2018-04-23T02:54:53.018Z,6.30
2018-04-23T02:55:53.015Z,5.80
2018-04-23T02:57:45.998Z,5.90
2018-04-23T02:58:45.978Z,5.40
2018-04-23T03:00:38.961Z,5.60
2018-04-23T03:01:38.905Z,5.50
2018-04-23T03:03:31.948Z,5.60
2018-04-23T03:04:31.920Z,6.00
2018-04-23T03:07:15.919Z,5.90
2018-04-23T03:08:15.893Z,5.90
2018-04-23T03:10:08.913Z,5.90
2018-04-23T03:11:08.797Z,6.00
2018-04-23T03:13:01.882Z,5.90
2018-04-23T03:14:01.824Z,6.00
2018-04-23T03:15:54.718Z,5.80
2018-04-23T03:16:54.693Z,6.10
2018-04-23T03:18:47.642Z,5.70
2018-04-23T03:19:47.631Z,6.20
2018-04-23T03:21:40.550Z,6.00
2018-04-23T03:22:40.516Z,5.70
2018-04-23T03:24:33.553Z,5.90
2018-04-23T03:25:33.537Z,5.60
2018-04-23T03:28:17.589Z,5.40
2018-04-23T03:29:17.558Z,5.40
2018-04-23T03:31:10.502Z,5.20
2018-04-23T03:32:10.475Z,5.60
2018-04-23T03:34:03.461Z,5.60
2018-04-23T03:35:03.440Z,5.60
2018-04-23T03:36:56.384Z,5.50
2018-04-23T03:37:56.350Z,5.40
2018-04-23T03:39:49.347Z,5.70
2018-04-23T03:40:49.324Z,5.30
2018-04-23T03:42:42.229Z,5.50
2018-04-23T03:43:42.210Z,5.30
2018-04-23T03:45:35.130Z,5.10
2018-04-23T03:46:35.131Z,5.40
2018-04-23T03:48:28.105Z,5.50
2018-04-23T03:49:28.076Z,5.50
2018-04-23T03:51:21.052Z,5.30
2018-04-23T03:52:21.015Z,5.70
2018-04-23T03:55:05.007Z,5.40
2018-04-23T03:56:04.978Z,5.40
2018-04-23T03:57:57.949Z,5.20
2018-04-23T03:58:57.920Z,5.90
2018-04-23T04:00:50.933Z,5.50
2018-04-23T04:01:50.902Z,5.90
2018-04-23T04:03:43.821Z,5.30
2018-04-23T04:04:43.810Z,5.60
2018-04-23T04:06:36.722Z,5.60
2018-04-23T04:07:36.686Z,5.50
2018-04-23T04:09:29.669Z,5.00
2018-04-23T04:10:29.657Z,5.40
2018-04-23T04:12:22.605Z,5.30
2018-04-23T04:13:22.572Z,5.70
2018-04-23T04:16:06.604Z,5.10
2018-04-23T04:17:06.563Z,5.40
2018-04-23T04:18:06.550Z,5.40
2018-04-23T04:19:06.552Z,5.10
2018-04-23T04:20:06.551Z,5.40
2018-04-23T04:21:06.547Z,5.50
2018-04-23T04:22:06.537Z,4.80
2018-04-23T04:23:06.533Z,5.40
2018-04-23T04:24:06.531Z,5.20
2018-04-23T04:25:06.528Z,5.30
2018-04-23T04:26:06.523Z,5.30
2018-04-23T04:27:06.521Z,5.20
2018-04-23T04:28:06.520Z,5.30
2018-04-23T04:29:06.509Z,4.80
2018-04-23T04:30:06.522Z,5.70
2018-04-23T04:31:06.507Z,5.20
2018-04-23T04:32:06.502Z,5.20
2018-04-23T04:33:06.497Z,5.00
2018-04-23T04:34:06.497Z,4.70
2018-04-23T04:35:06.495Z,5.00
2018-04-23T04:36:06.485Z,4.90
2018-04-23T04:37:06.482Z,5.30
2018-04-23T04:38:06.484Z,5.40
2018-04-23T04:39:06.495Z,5.00
2018-04-23T04:40:06.484Z,5.10
2018-04-23T04:41:06.473Z,5.20
2018-04-23T04:42:06.473Z,4.70
2018-04-23T04:43:06.467Z,4.80
2018-04-23T04:44:06.471Z,4.50
2018-04-23T04:45:06.468Z,4.80
2018-04-23T04:46:06.459Z,4.70
2018-04-23T04:47:06.460Z,4.80
2018-04-23T04:48:06.450Z,4.80
2018-04-23T04:49:06.447Z,4.70
2018-04-23T04:50:06.447Z,5.00
2018-04-23T04:51:06.489Z,5.00
2018-04-23T04:52:06.488Z,4.90
2018-04-23T04:53:06.508Z,4.90
2018-04-23T04:54:06.436Z,5.30
2018-04-23T04:55:06.435Z,4.90
2018-04-23T04:56:06.426Z,5.20
2018-04-23T04:57:06.423Z,5.00
2018-04-23T04:58:06.419Z,4.70
2018-04-23T04:59:06.473Z,5.20
2018-04-23T05:00:06.481Z,4.70
2018-04-23T05:01:06.419Z,4.50
2018-04-23T05:02:06.410Z,4.40
2018-04-23T05:03:06.417Z,4.90
2018-04-23T05:04:06.407Z,4.80
2018-04-23T05:05:06.414Z,4.90
2018-04-23T05:06:06.405Z,4.80
2018-04-23T05:07:06.426Z,4.60
2018-04-23T05:08:06.396Z,5.00
2018-04-23T05:09:06.395Z,5.00
2018-04-23T05:10:06.400Z,5.20
2018-04-23T05:11:06.391Z,5.00
2018-04-23T05:12:06.396Z,4.90
2018-04-23T05:13:06.386Z,4.60
2018-04-23T05:14:06.382Z,4.40
2018-04-23T05:15:06.383Z,5.10
2018-04-23T05:16:06.378Z,5.10
2018-04-23T05:17:06.372Z,5.40
2018-04-23T05:18:06.376Z,4.80
2018-04-23T05:19:06.378Z,5.10
2018-04-23T05:20:06.364Z,5.00
2018-04-23T05:21:06.371Z,5.00
2018-04-23T05:22:06.372Z,4.90
2018-04-23T05:23:06.367Z,5.10
2018-04-23T05:24:06.358Z,4.80
2018-04-23T05:25:06.360Z,4.90
2018-04-23T05:26:06.358Z,4.70
2018-04-23T05:27:06.351Z,4.90
2018-04-23T05:28:06.346Z,4.70
2018-04-23T05:29:06.353Z,4.90
2018-04-23T05:30:06.354Z,4.80
2018-04-23T05:31:06.349Z,5.00
2018-04-23T05:32:06.351Z,4.80
2018-04-23T05:33:06.347Z,4.90
2018-04-23T05:34:06.342Z,5.10
2018-04-23T05:35:06.390Z,4.70
2018-04-23T05:36:06.347Z,5.00
2018-04-23T05:37:06.344Z,4.70
2018-04-23T05:38:06.344Z,5.10
2018-04-23T05:39:06.338Z,4.60
2018-04-23T05:40:06.331Z,4.90
2018-04-23T05:41:06.392Z,5.10
2018-04-23T05:42:06.401Z,5.20
2018-04-23T05:43:06.431Z,5.10
2018-04-23T05:44:06.428Z,5.00
2018-04-23T05:45:06.368Z,5.30
2018-04-23T05:46:06.360Z,5.10
2018-04-23T05:47:06.365Z,4.80
2018-04-23T05:48:06.370Z,5.40
2018-04-23T05:49:06.375Z,5.10
2018-04-23T05:50:06.391Z,5.00
2018-04-23T05:51:06.391Z,5.00
2018-04-23T05:52:06.374Z,5.20
2018-04-23T05:53:06.375Z,4.90
2018-04-23T05:54:06.363Z,5.10
2018-04-23T05:55:06.376Z,4.70
2018-04-23T05:56:06.376Z,4.90
2018-04-23T05:57:06.376Z,5.00
2018-04-23T05:58:06.373Z,4.90
2018-04-23T05:59:06.380Z,5.10
2018-04-23T06:00:06.384Z,5.30
2018-04-23T06:01:06.371Z,5.00
2018-04-23T06:02:06.394Z,4.90
2018-04-23T06:03:06.456Z,5.30
2018-04-23T06:04:06.395Z,5.50
2018-04-23T06:05:06.384Z,5.10
2018-04-23T06:06:06.346Z,5.40
2018-04-23T06:07:06.410Z,5.40
2018-04-23T06:08:06.386Z,5.10
2018-04-23T06:09:06.382Z,5.30
2018-04-23T06:10:06.387Z,5.30
2018-04-23T06:11:06.387Z,4.90
2018-04-23T06:12:06.390Z,5.10
2018-04-23T06:13:06.332Z,4.70
2018-04-23T06:14:06.388Z,5.40
2018-04-23T06:15:06.370Z,4.90
2018-04-23T06:16:06.398Z,5.20
2018-04-23T06:17:06.357Z,5.30
2018-04-23T06:18:06.361Z,5.60
2018-04-23T06:19:06.366Z,5.30
2018-04-23T06:20:06.376Z,5.50
2018-04-23T06:21:06.385Z,5.90
2018-04-23T06:22:06.389Z,5.60
2018-04-23T06:23:06.366Z,5.80
2018-04-23T06:24:06.370Z,5.30
2018-04-23T06:25:06.329Z,5.10
2018-04-23T06:26:06.341Z,5.20
2018-04-23T06:27:06.327Z,5.00
2018-04-23T06:28:06.339Z,4.80
2018-04-23T06:29:06.336Z,4.80
2018-04-23T06:30:06.342Z,5.00
2018-04-23T06:31:06.346Z,4.70
2018-04-23T06:32:06.358Z,5.00
2018-04-23T06:33:06.344Z,4.70
2018-04-23T06:34:06.378Z,4.80
2018-04-23T06:35:06.387Z,5.10
2018-04-23T06:36:06.354Z,4.90
2018-04-23T06:37:06.346Z,4.60
2018-04-23T06:38:06.410Z,4.90
2018-04-23T06:39:06.350Z,4.80
2018-04-23T06:40:06.357Z,5.00
2018-04-23T06:41:06.359Z,4.90
2018-04-23T06:42:06.377Z,4.70
2018-04-23T06:43:06.357Z,4.90
2018-04-23T06:44:06.356Z,4.70
2018-04-23T06:45:06.364Z,5.10
2018-04-23T06:46:06.367Z,5.40
2018-04-23T06:47:06.414Z,5.10
2018-04-23T06:48:06.362Z,5.20
2018-04-23T06:49:06.363Z,5.20
2018-04-23T06:50:06.369Z,5.30
2018-04-23T06:51:06.366Z,5.40
2018-04-23T06:52:06.382Z,5.50
2018-04-23T06:53:06.366Z,5.20
2018-04-23T06:54:06.364Z,5.20
2018-04-23T06:55:06.369Z,4.90
2018-04-23T06:56:06.369Z,5.20
2018-04-23T06:57:06.370Z,5.30
2018-04-23T06:58:06.448Z,5.50
2018-04-23T06:59:06.449Z,5.50
2018-04-23T07:00:06.439Z,5.20
2018-04-23T07:01:06.418Z,5.20
2018-04-23T07:02:06.412Z,5.40
2018-04-23T07:03:06.421Z,5.30
2018-04-23T07:04:06.425Z,5.10
2018-04-23T07:05:06.460Z,5.30
2018-04-23T07:06:06.413Z,5.20
2018-04-23T07:07:06.424Z,5.00
2018-04-23T07:08:06.386Z,5.10
2018-04-23T07:09:06.391Z,5.10
2018-04-23T07:10:06.396Z,5.30
2018-04-23T07:11:06.389Z,5.80
2018-04-23T07:12:06.389Z,5.10
2018-04-23T07:13:06.399Z,4.90
2018-04-23T07:14:06.407Z,5.10
2018-04-23T07:15:06.408Z,5.30
2018-04-23T07:16:06.402Z,4.90
2018-04-23T07:17:06.412Z,4.90
2018-04-23T07:18:06.405Z,5.00
2018-04-23T07:19:06.414Z,4.50
2018-04-23T07:20:06.413Z,4.50
2018-04-23T07:21:06.416Z,4.80
2018-04-23T07:22:06.421Z,4.70
2018-04-23T07:23:06.431Z,4.70
2018-04-23T07:24:06.440Z,4.60
2018-04-23T07:25:06.448Z,5.10
2018-04-23T07:26:06.439Z,5.00
2018-04-23T07:27:06.458Z,4.30
2018-04-23T07:28:06.440Z,4.60
2018-04-23T07:29:06.455Z,4.70
2018-04-23T07:30:06.454Z,4.70
2018-04-23T07:31:06.463Z,4.70
2018-04-23T07:32:06.465Z,4.80
2018-04-23T07:33:06.531Z,4.70
2018-04-23T07:34:06.520Z,4.70
2018-04-23T07:35:06.531Z,4.60
2018-04-23T07:36:06.521Z,4.50
2018-04-23T07:37:06.538Z,4.80
2018-04-23T07:38:06.535Z,4.80
2018-04-23T07:39:06.541Z,4.20
2018-04-23T07:40:06.547Z,4.40
2018-04-23T07:41:06.559Z,4.30
2018-04-23T07:42:06.586Z,4.20
2018-04-23T07:43:06.576Z,4.30
2018-04-23T07:44:06.582Z,4.20
2018-04-23T07:45:06.633Z,4.10
2018-04-23T07:46:06.636Z,4.10
2018-04-23T07:47:06.650Z,4.40
2018-04-23T07:48:06.660Z,4.10
2018-04-23T07:49:06.656Z,4.20
2018-04-23T07:50:06.625Z,3.90
2018-04-23T07:51:06.636Z,4.30
2018-04-23T07:52:06.645Z,3.90
2018-04-23T07:53:06.662Z,3.90
2018-04-23T07:54:06.677Z,4.20
2018-04-23T07:55:06.684Z,4.10
2018-04-23T07:56:06.683Z,3.80
2018-04-23T07:57:06.713Z,4.00
2018-04-23T07:58:07.041Z,3.90
2018-04-23T07:59:06.746Z,3.60
2018-04-23T08:00:06.746Z,3.70
2018-04-23T08:01:06.767Z,3.70
2018-04-23T08:02:06.779Z,3.70
2018-04-23T08:03:06.779Z,3.70
2018-04-23T08:04:06.797Z,4.20
2018-04-23T08:05:06.836Z,3.60
2018-04-23T08:06:06.829Z,3.60
2018-04-23T08:07:06.838Z,3.70
2018-04-23T08:08:06.853Z,3.90
2018-04-23T08:09:06.881Z,3.80
2018-04-23T08:10:06.887Z,3.60
2018-04-23T08:11:06.901Z,3.90
2018-04-23T08:12:06.916Z,3.70
2018-04-23T08:13:06.928Z,3.90
2018-04-23T08:14:06.945Z,3.70
2018-04-23T08:15:06.972Z,3.60
2018-04-23T08:16:06.993Z,3.50
2018-04-23T08:17:06.999Z,3.60
2018-04-23T08:18:07.016Z,3.80
2018-04-23T08:19:07.023Z,3.40
2018-04-23T08:20:07.039Z,3.30
2018-04-23T08:21:07.051Z,3.40
2018-04-23T08:22:07.068Z,3.80
2018-04-23T08:23:07.085Z,3.50
2018-04-23T08:24:07.108Z,3.80
2018-04-23T08:25:07.113Z,3.50
2018-04-23T08:26:07.127Z,3.50
2018-04-23T08:27:07.142Z,3.90
2018-04-23T08:28:07.170Z,3.60
2018-04-23T08:29:07.172Z,3.50
2018-04-23T08:30:07.190Z,3.60
2018-04-23T08:31:07.209Z,3.70
2018-04-23T08:32:07.229Z,3.70
2018-04-23T08:33:07.239Z,3.70
2018-04-23T08:34:07.256Z,3.60
2018-04-23T08:35:07.274Z,3.50
2018-04-23T08:36:07.288Z,3.40
2018-04-23T08:37:07.304Z,3.60
2018-04-23T08:38:07.343Z,3.50
2018-04-23T08:39:07.334Z,3.90
2018-04-23T08:40:07.345Z,3.50
2018-04-23T08:41:07.371Z,3.60
2018-04-23T08:42:07.401Z,3.30
2018-04-23T08:43:07.405Z,3.50
2018-04-23T08:44:07.427Z,4.00
2018-04-23T08:45:07.434Z,3.60
2018-04-23T08:46:07.462Z,3.60
2018-04-23T08:47:07.486Z,3.40
2018-04-23T08:48:07.494Z,3.40
2018-04-23T08:49:07.502Z,3.60
2018-04-23T08:50:07.515Z,3.50
2018-04-23T08:51:07.532Z,3.60
2018-04-23T08:52:07.545Z,3.40
2018-04-23T08:53:07.561Z,3.70
2018-04-23T08:54:07.579Z,3.60
2018-04-23T08:55:07.588Z,3.60
2018-04-23T08:56:07.609Z,3.50
2018-04-23T08:57:07.622Z,3.60
2018-04-23T08:58:07.627Z,4.20
2018-04-23T08:59:07.643Z,3.70
2018-04-23T09:00:07.671Z,3.50
2018-04-23T09:01:07.674Z,3.80
2018-04-23T09:02:07.695Z,3.70
2018-04-23T09:03:07.694Z,3.90
2018-04-23T09:04:07.713Z,3.60
2018-04-23T09:05:07.732Z,3.80
2018-04-23T09:06:07.731Z,4.20
2018-04-23T09:07:07.743Z,4.10
2018-04-23T09:08:07.751Z,3.90
2018-04-23T09:09:07.782Z,4.50
2018-04-23T09:10:07.790Z,4.10
2018-04-23T09:11:07.789Z,4.10
2018-04-23T09:12:07.808Z,4.20
2018-04-23T09:13:07.812Z,4.00
2018-04-23T09:14:07.824Z,4.20
2018-04-23T09:15:07.839Z,4.20
2018-04-23T09:16:07.862Z,4.10
2018-04-23T09:17:07.865Z,4.40
2018-04-23T09:18:07.881Z,4.00
2018-04-23T09:19:07.882Z,3.80
2018-04-23T09:20:07.894Z,3.80
2018-04-23T09:21:07.907Z,3.90
2018-04-23T09:22:07.929Z,4.00
2018-04-23T09:23:07.937Z,3.70
2018-04-23T09:24:07.945Z,4.40
2018-04-23T09:25:07.962Z,4.00
2018-04-23T09:26:07.988Z,4.20
2018-04-23T09:27:07.997Z,4.20
2018-04-23T09:28:08.006Z,3.80
2018-04-23T09:29:08.024Z,3.90
2018-04-23T09:30:08.037Z,4.20
2018-04-23T09:31:08.048Z,3.70
2018-04-23T09:32:08.062Z,3.90
2018-04-23T09:33:08.087Z,4.00
2018-04-23T09:34:08.106Z,3.70
2018-04-23T09:35:08.114Z,3.90
2018-04-23T09:36:08.132Z,3.80
2018-04-23T09:37:08.146Z,3.90
2018-04-23T09:38:08.160Z,3.50
2018-04-23T09:39:08.230Z,3.70
2018-04-23T09:40:08.193Z,3.80
2018-04-23T09:41:08.212Z,3.90
2018-04-23T09:42:08.227Z,3.60
2018-04-23T09:43:08.243Z,3.60
2018-04-23T09:44:08.258Z,3.80
2018-04-23T09:45:08.286Z,3.80
2018-04-23T09:46:08.284Z,3.60
2018-04-23T09:47:08.319Z,3.80
2018-04-23T09:48:08.317Z,3.80
2018-04-23T09:49:08.377Z,3.50
2018-04-23T09:50:08.385Z,4.00
2018-04-23T09:51:08.382Z,3.40
2018-04-23T09:52:08.379Z,3.90
2018-04-23T09:53:08.390Z,3.60
2018-04-23T09:54:08.403Z,3.50
2018-04-23T09:55:08.419Z,3.90
2018-04-23T09:56:08.437Z,3.80
2018-04-23T09:57:08.448Z,4.10
2018-04-23T09:58:08.511Z,3.80
2018-04-23T09:59:08.472Z,3.90
2018-04-23T10:00:08.493Z,3.90
2018-04-23T10:01:08.503Z,3.90
2018-04-23T10:02:08.513Z,4.20
2018-04-23T10:03:08.529Z,4.10
2018-04-23T10:04:08.530Z,4.10
2018-04-23T10:05:08.550Z,4.10
2018-04-23T10:06:08.610Z,3.90
2018-04-23T10:07:08.580Z,4.20
2018-04-23T10:08:08.598Z,4.30
2018-04-23T10:09:08.590Z,3.70
2018-04-23T10:10:08.609Z,4.50
2018-04-23T10:11:08.618Z,3.90
2018-04-23T10:12:08.649Z,4.10
2018-04-23T10:13:08.642Z,4.20
2018-04-23T10:14:08.661Z,4.20
2018-04-23T10:15:08.661Z,4.00
2018-04-23T10:16:08.681Z,3.90
2018-04-23T10:17:08.684Z,4.30
2018-04-23T10:18:08.705Z,4.20
2018-04-23T10:19:08.710Z,4.40
2018-04-23T10:20:08.718Z,4.40
2018-04-23T10:21:08.722Z,4.10
2018-04-23T10:22:08.735Z,4.10
2018-04-23T10:23:08.772Z,3.90
2018-04-23T10:24:08.758Z,4.10
2018-04-23T10:25:08.770Z,4.00
2018-04-23T10:26:08.795Z,3.90
2018-04-23T10:27:08.808Z,3.70
2018-04-23T10:28:08.796Z,4.00
2018-04-23T10:29:08.826Z,4.10
2018-04-23T10:30:08.816Z,3.90
2018-04-23T10:31:08.825Z,4.40
2018-04-23T10:32:08.838Z,4.40
2018-04-23T10:33:08.851Z,4.20
2018-04-23T10:34:08.857Z,3.90
2018-04-23T10:35:08.858Z,4.40
2018-04-23T10:36:08.870Z,4.00
2018-04-23T10:37:08.905Z,3.80
2018-04-23T10:38:08.909Z,4.10
2018-04-23T10:39:08.903Z,4.20
2018-04-23T10:40:08.914Z,4.30
2018-04-23T10:41:08.919Z,4.30
2018-04-23T10:42:08.936Z,4.40
2018-04-23T10:43:09.006Z,4.40
2018-04-23T10:44:08.952Z,4.40
2018-04-23T10:45:08.956Z,4.10
2018-04-23T10:46:08.971Z,4.30
2018-04-23T10:47:08.976Z,4.20
2018-04-23T10:48:08.983Z,4.50
2018-04-23T10:49:08.995Z,4.20
2018-04-23T10:50:09.014Z,4.40
2018-04-23T10:51:09.090Z,3.80
2018-04-23T10:52:09.083Z,4.00
2018-04-23T10:53:09.029Z,4.50
2018-04-23T10:54:09.037Z,4.40
2018-04-23T10:55:09.047Z,4.20
2018-04-23T10:56:09.053Z,4.10
2018-04-23T10:57:09.071Z,4.20
2018-04-23T10:58:09.081Z,4.20
2018-04-23T10:59:09.095Z,4.10
2018-04-23T11:00:09.106Z,3.70
2018-04-23T11:01:09.114Z,4.00
2018-04-23T11:02:09.127Z,4.20
2018-04-23T11:03:09.143Z,4.20
2018-04-23T11:04:09.151Z,4.00
2018-04-23T11:05:09.158Z,4.30
2018-04-23T11:06:09.172Z,4.40
2018-04-23T11:07:09.187Z,4.00
2018-04-23T11:08:09.229Z,4.00
2018-04-23T11:09:09.223Z,3.90
2018-04-23T11:10:09.230Z,4.00
2018-04-23T11:11:09.247Z,4.00
2018-04-23T11:12:09.264Z,3.50
2018-04-23T11:13:09.319Z,3.80
2018-04-23T11:14:09.318Z,3.70
2018-04-23T11:15:09.330Z,3.80
2018-04-23T11:16:09.346Z,4.00
2018-04-23T11:17:09.361Z,4.00
2018-04-23T11:18:09.363Z,3.80
2018-04-23T11:19:09.445Z,4.10
2018-04-23T11:20:09.453Z,4.10
2018-04-23T11:21:09.483Z,3.90
2018-04-23T11:22:09.479Z,3.80
2018-04-23T11:23:09.470Z,3.90
2018-04-23T11:24:09.487Z,3.70
2018-04-23T11:25:09.479Z,3.90
2018-04-23T11:26:09.514Z,4.10
2018-04-23T11:27:09.522Z,4.00
2018-04-23T11:28:09.559Z,3.80
2018-04-23T11:29:09.547Z,3.90
2018-04-23T11:30:09.621Z,3.80
2018-04-23T11:31:09.627Z,4.00
2018-04-23T11:32:09.635Z,4.00
2018-04-23T11:33:09.634Z,4.00
2018-04-23T11:34:09.649Z,3.80
2018-04-23T11:35:09.647Z,3.60
2018-04-23T11:36:09.654Z,4.00
2018-04-23T11:37:09.682Z,3.70
2018-04-23T11:38:09.691Z,3.70
2018-04-23T11:39:09.732Z,3.60
2018-04-23T11:40:09.801Z,4.50
2018-04-23T11:41:09.804Z,3.70
2018-04-23T11:42:09.765Z,4.40
2018-04-23T11:43:09.834Z,3.80
2018-04-23T11:44:09.827Z,3.70
2018-04-23T11:45:09.887Z,4.20
2018-04-23T11:46:09.859Z,4.10
2018-04-23T11:47:09.890Z,3.60
2018-04-23T11:48:09.897Z,3.90
2018-04-23T11:49:09.899Z,3.60
2018-04-23T11:50:09.968Z,3.80
2018-04-23T11:51:09.966Z,3.90
2018-04-23T11:52:09.994Z,3.70
2018-04-23T11:53:10.056Z,4.00
2018-04-23T11:54:09.985Z,4.00
2018-04-23T11:55:10.025Z,3.70
2018-04-23T11:56:10.028Z,3.80
2018-04-23T11:57:10.070Z,3.50
2018-04-23T11:58:10.081Z,3.80
2018-04-23T11:59:10.118Z,3.60
2018-04-23T12:00:10.119Z,3.80
2018-04-23T12:01:10.180Z,3.50
2018-04-23T12:02:10.146Z,3.80
2018-04-23T12:03:10.151Z,3.90
2018-04-23T12:04:10.154Z,3.70
2018-04-23T12:05:10.172Z,3.70
2018-04-23T12:06:10.191Z,3.60
2018-04-23T12:07:10.211Z,3.90
2018-04-23T12:08:10.227Z,4.10
2018-04-23T12:09:10.285Z,3.70
2018-04-23T12:10:10.300Z,3.70
2018-04-23T12:11:10.286Z,3.50
2018-04-23T12:12:10.289Z,3.80
2018-04-23T12:13:10.337Z,3.60
2018-04-23T12:14:10.330Z,3.80
2018-04-23T12:15:10.339Z,3.60
2018-04-23T12:16:10.371Z,3.90
2018-04-23T12:17:10.380Z,3.50
2018-04-23T12:18:10.391Z,3.90
2018-04-23T12:19:10.394Z,4.00
2018-04-23T12:20:10.418Z,3.90
2018-04-23T12:21:10.441Z,4.20
2018-04-23T12:22:10.448Z,3.90
2018-04-23T12:23:10.508Z,4.10
2018-04-23T12:24:10.518Z,4.00
2018-04-23T12:25:10.490Z,4.20
2018-04-23T12:26:10.524Z,4.10
2018-04-23T12:27:10.511Z,4.10
2018-04-23T12:28:10.528Z,4.10
2018-04-23T12:29:11.175Z,3.90
2018-04-23T12:30:10.558Z,3.90
2018-04-23T12:31:10.584Z,4.00
2018-04-23T12:32:10.592Z,4.10
2018-04-23T12:33:10.590Z,3.90
2018-04-23T12:34:10.609Z,3.60
2018-04-23T12:35:10.616Z,3.60
2018-04-23T12:36:10.679Z,3.90
2018-04-23T12:37:10.646Z,3.70
2018-04-23T12:38:10.662Z,3.20
2018-04-23T12:39:10.661Z,3.50
2018-04-23T12:40:10.687Z,3.50
2018-04-23T12:41:10.718Z,3.60
2018-04-23T12:42:10.696Z,3.30
2018-04-23T12:43:10.704Z,3.90
2018-04-23T12:44:10.724Z,3.20
2018-04-23T12:45:10.730Z,3.00
2018-04-23T12:46:10.795Z,3.00
2018-04-23T12:47:10.754Z,2.90
2018-04-23T12:48:10.755Z,2.90
2018-04-23T12:49:10.769Z,2.70
2018-04-23T12:50:10.777Z,2.70
2018-04-23T12:51:10.784Z,2.60
2018-04-23T12:52:10.838Z,2.40
2018-04-23T12:53:10.806Z,2.90
2018-04-23T12:54:10.917Z,2.50
2018-04-23T12:55:10.822Z,3.00
2018-04-23T12:56:10.824Z,3.00
2018-04-23T12:57:10.832Z,2.90
2018-04-23T12:58:10.837Z,3.00
2018-04-23T12:59:10.846Z,3.00
2018-04-23T13:00:10.865Z,3.30
2018-04-23T13:01:10.883Z,3.10
2018-04-23T13:02:10.862Z,3.00
2018-04-23T13:03:10.871Z,3.10
2018-04-23T13:04:10.876Z,3.30
2018-04-23T13:05:10.954Z,3.10
2018-04-23T13:06:10.892Z,3.40
2018-04-23T13:07:10.896Z,3.30
2018-04-23T13:08:10.905Z,2.90
2018-04-23T13:09:10.920Z,2.90
2018-04-23T13:10:10.922Z,3.20
2018-04-23T13:11:10.925Z,3.50
2018-04-23T13:12:10.926Z,3.30
2018-04-23T13:13:11.035Z,3.50
2018-04-23T13:14:11.028Z,2.90
2018-04-23T13:15:10.946Z,3.60
2018-04-23T13:16:11.026Z,3.40
2018-04-23T13:17:11.123Z,3.70
2018-04-23T13:18:10.970Z,3.20
2018-04-23T13:19:10.963Z,3.40
2018-04-23T13:20:10.974Z,3.40
2018-04-23T13:21:10.981Z,3.20
2018-04-23T13:22:10.991Z,3.30
2018-04-23T13:23:10.997Z,3.30
2018-04-23T13:24:11.006Z,3.00
2018-04-23T13:25:11.043Z,3.10
2018-04-23T13:26:11.012Z,3.20
2018-04-23T13:27:11.020Z,3.40
2018-04-23T13:28:11.027Z,3.20
2018-04-23T13:29:11.025Z,2.90
2018-04-23T13:30:11.058Z,3.30
2018-04-23T13:31:11.065Z,3.50
2018-04-23T13:32:11.056Z,3.30
2018-04-23T13:33:11.069Z,3.50
2018-04-23T13:34:11.091Z,3.00
2018-04-23T13:35:11.077Z,3.20
2018-04-23T13:36:11.119Z,3.20
2018-04-23T13:37:11.115Z,2.70
2018-04-23T13:38:11.090Z,2.90
2018-04-23T13:39:11.105Z,2.90
2018-04-23T13:40:11.118Z,3.30
2018-04-23T13:41:11.116Z,2.80
2018-04-23T13:42:11.113Z,3.00
2018-04-23T13:43:11.124Z,3.30
2018-04-23T13:44:11.139Z,3.20
2018-04-23T13:45:11.152Z,2.80
2018-04-23T13:46:11.145Z,3.00
2018-04-23T13:47:11.151Z,3.20
2018-04-23T13:48:11.158Z,2.90
2018-04-23T13:49:11.145Z,3.00
2018-04-23T13:50:11.196Z,3.00
2018-04-23T13:51:12.083Z,2.90
2018-04-23T13:52:12.083Z,2.60
2018-04-23T13:53:12.079Z,2.70
2018-04-23T13:54:11.169Z,2.60
2018-04-23T13:55:11.203Z,2.90
2018-04-23T13:56:11.272Z,2.40
2018-04-23T13:57:11.210Z,2.80
2018-04-23T13:58:11.222Z,2.80
2018-04-23T13:59:11.266Z,2.80
2018-04-23T14:00:11.237Z,3.20
2018-04-23T14:01:11.253Z,2.80
2018-04-23T14:02:11.244Z,3.10
2018-04-23T14:03:11.149Z,2.80
2018-04-23T14:04:11.158Z,2.90
2018-04-23T14:05:11.155Z,2.50
2018-04-23T14:06:11.162Z,2.70
2018-04-23T14:07:11.174Z,3.20
2018-04-23T14:08:11.159Z,3.00
2018-04-23T14:09:11.160Z,2.80
2018-04-23T14:10:11.170Z,3.50
2018-04-23T14:11:11.172Z,3.20
2018-04-23T14:12:11.187Z,3.00
2018-04-23T14:13:11.166Z,3.40
2018-04-23T14:14:11.220Z,3.40
2018-04-23T14:15:11.209Z,3.10
2018-04-23T14:16:11.188Z,3.40
2018-04-23T14:17:11.186Z,3.50
2018-04-23T14:18:11.182Z,3.60
2018-04-23T14:19:11.186Z,4.10
2018-04-23T14:20:11.212Z,4.00
2018-04-23T14:21:11.198Z,4.10
2018-04-23T14:22:11.209Z,4.10
2018-04-23T14:23:11.203Z,3.90
2018-04-23T14:24:11.204Z,3.90
2018-04-23T14:25:11.199Z,3.80
2018-04-23T14:26:11.216Z,3.90
2018-04-23T14:27:11.212Z,3.70
2018-04-23T14:28:11.223Z,3.90
2018-04-23T14:29:11.216Z,3.60
2018-04-23T14:30:11.244Z,4.00
2018-04-23T14:31:11.219Z,4.00
2018-04-23T14:32:11.218Z,3.60
2018-04-23T14:33:11.234Z,4.20
2018-04-23T14:34:11.215Z,3.40